Time;durP1;ratioP1;P1;durP2;ratioP2;P2;SDS_P1;SDS_P2;PMS_P1;PMS_P2;Temp;Humidity;BMP_temperature;BMP_pressure;BME280_temperature;BME280_humidity;BME280_pressure;Samples;Min_cycle;Max_cycle;Signal;HPM_P1;HPM_P2
2023/05/14 00:00:47;;;;;;;0.40;0.40;;;13.30;99.90;;;;;;5093824;28;20077;-91
2023/05/14 00:03:13;;;;;;;0.05;0.05;;;13.30;99.90;;;;;;5094621;28;20024;-90
2023/05/14 00:05:38;;;;;;;0.03;0.03;;;13.30;99.90;;;;;;5094504;28;20076;-90
2023/05/14 00:08:05;;;;;;;0.30;0.30;;;13.30;99.90;;;;;;5094132;28;20032;-90
2023/05/14 00:10:30;;;;;;;0.00;0.00;;;13.30;99.90;;;;;;5093333;28;20039;-90
2023/05/14 00:12:56;;;;;;;0.00;0.00;;;13.30;99.90;;;;;;5094504;28;20024;-90
2023/05/14 00:15:21;;;;;;;0.20;0.20;;;13.30;99.90;;;;;;5094151;28;20030;-90
2023/05/14 00:17:47;;;;;;;0.30;0.30;;;13.20;99.90;;;;;;5093037;28;20024;-90
2023/05/14 00:20:13;;;;;;;0.30;0.30;;;13.10;99.90;;;;;;5092993;28;20169;-90
2023/05/14 00:22:39;;;;;;;0.00;0.00;;;13.10;99.90;;;;;;5093119;28;20506;-90
2023/05/14 00:25:06;;;;;;;0.13;0.13;;;13.20;99.90;;;;;;5093818;28;20024;-90
2023/05/14 00:27:33;;;;;;;0.13;0.13;;;13.30;99.90;;;;;;5092486;28;20028;-90
2023/05/14 00:29:59;;;;;;;0.30;0.30;;;13.20;99.90;;;;;;5093813;28;20119;-91
2023/05/14 00:32:25;;;;;;;0.10;0.10;;;13.10;99.90;;;;;;5093948;28;20044;-90
2023/05/14 00:34:50;;;;;;;0.08;0.08;;;13.00;99.90;;;;;;5094090;28;20392;-91
2023/05/14 00:37:16;;;;;;;0.35;0.35;;;12.90;99.90;;;;;;5093724;28;20073;-90
2023/05/14 00:39:42;;;;;;;0.10;0.10;;;12.80;99.90;;;;;;5092850;28;20139;-91
2023/05/14 00:42:08;;;;;;;0.75;0.15;;;12.90;99.90;;;;;;5093702;28;20028;-91
2023/05/14 00:44:35;;;;;;;0.10;0.10;;;13.00;99.90;;;;;;5092447;28;20392;-91
2023/05/14 00:47:00;;;;;;;0.00;0.00;;;13.10;99.90;;;;;;5092541;28;20020;-90
2023/05/14 00:49:27;;;;;;;0.03;0.03;;;13.10;99.90;;;;;;5093563;28;20436;-90
2023/05/14 00:51:53;;;;;;;0.10;0.10;;;13.10;99.90;;;;;;5093473;28;20197;-90
2023/05/14 00:54:19;;;;;;;0.10;0.10;;;13.10;99.90;;;;;;5092438;28;20052;-90
2023/05/14 00:56:46;;;;;;;0.30;0.30;;;13.20;99.90;;;;;;5092507;28;20455;-90
2023/05/14 00:59:12;;;;;;;0.00;0.00;;;13.10;99.90;;;;;;5092527;28;20476;-90
2023/05/14 01:01:38;;;;;;;0.10;0.10;;;13.10;99.90;;;;;;5092677;28;20032;-91
2023/05/14 01:04:06;;;;;;;0.05;0.05;;;13.20;99.90;;;;;;5092472;28;20046;-90
2023/05/14 01:06:52;;;;;;;0.00;0.00;;;13.10;99.90;;;;;;5093434;28;20480;-90
2023/05/14 01:09:28;;;;;;;0.10;0.10;;;13.00;99.90;;;;;;5093038;28;20036;-90
2023/05/14 01:11:58;;;;;;;0.00;0.00;;;13.10;99.90;;;;;;5097388;28;20110;-90
2023/05/14 01:14:53;;;;;;;0.10;0.10;;;13.10;99.90;;;;;;5097987;28;20644;-90
2023/05/14 01:17:21;;;;;;;0.00;0.00;;;13.20;99.90;;;;;;5097650;28;20024;-90
2023/05/14 01:19:47;;;;;;;0.00;0.00;;;13.20;99.90;;;;;;5097140;28;20074;-88
2023/05/14 01:22:13;;;;;;;0.10;0.10;;;13.10;99.90;;;;;;5097906;28;20024;-90
2023/05/14 01:24:39;;;;;;;0.10;0.10;;;13.10;99.90;;;;;;5096002;28;20039;-90
2023/05/14 01:27:14;;;;;;;0.10;0.10;;;13.00;99.90;;;;;;5096155;28;20024;-90
2023/05/14 01:29:44;;;;;;;0.10;0.10;;;12.90;99.90;;;;;;5097744;28;20036;-90
2023/05/14 01:32:12;;;;;;;0.00;0.00;;;13.00;99.90;;;;;;5096059;28;20025;-91
2023/05/14 01:34:38;;;;;;;0.08;0.08;;;12.80;99.90;;;;;;5096254;28;20035;-90
2023/05/14 01:37:05;;;;;;;0.20;0.20;;;12.80;99.90;;;;;;5096061;28;20055;-90
2023/05/14 01:39:32;;;;;;;0.05;0.05;;;12.70;99.90;;;;;;5096408;28;20379;-90
2023/05/14 01:41:59;;;;;;;0.13;0.13;;;12.80;99.90;;;;;;5097040;28;20024;-90
2023/05/14 01:44:25;;;;;;;0.30;0.22;;;12.80;99.90;;;;;;5096885;28;20380;-90
2023/05/14 01:46:51;;;;;;;0.00;0.00;;;12.80;99.90;;;;;;5095721;28;20035;-90
2023/05/14 01:49:18;;;;;;;0.17;0.17;;;12.80;99.90;;;;;;5097183;28;20147;-91
2023/05/14 01:51:44;;;;;;;1.00;0.75;;;12.80;99.90;;;;;;5095625;28;20110;-89
2023/05/14 01:54:09;;;;;;;0.20;0.20;;;12.80;99.90;;;;;;5095782;28;20131;-90
2023/05/14 01:56:35;;;;;;;0.00;0.00;;;12.70;99.90;;;;;;5095579;28;20193;-90
2023/05/14 01:59:00;;;;;;;0.10;0.10;;;12.80;99.90;;;;;;5097305;28;20032;-90
2023/05/14 02:01:26;;;;;;;0.00;0.00;;;12.80;99.90;;;;;;5095866;28;20496;-90
2023/05/14 02:03:52;;;;;;;0.00;0.00;;;12.80;99.90;;;;;;5095850;28;20024;-90
2023/05/14 02:06:17;;;;;;;0.10;0.10;;;12.90;99.90;;;;;;5096613;28;20476;-89
2023/05/14 02:08:43;;;;;;;1.75;0.45;;;12.90;99.90;;;;;;5094972;28;20071;-91
2023/05/14 02:11:08;;;;;;;0.00;0.00;;;12.90;99.90;;;;;;5095323;28;20463;-90
2023/05/14 02:13:35;;;;;;;0.10;0.10;;;12.90;99.90;;;;;;5095471;28;20028;-90
2023/05/14 02:16:00;;;;;;;0.52;0.25;;;12.80;99.90;;;;;;5095338;28;20115;-91
2023/05/14 02:18:26;;;;;;;0.15;0.15;;;12.70;99.90;;;;;;5096707;28;20048;-90
2023/05/14 02:20:52;;;;;;;0.10;0.10;;;12.80;99.90;;;;;;5095292;28;20583;-90
2023/05/14 02:23:17;;;;;;;0.55;0.55;;;12.70;99.90;;;;;;5095806;28;20024;-90
2023/05/14 02:25:43;;;;;;;0.20;0.20;;;12.70;99.90;;;;;;5129369;27;20493;-88
2023/05/14 02:28:09;;;;;;;0.00;0.00;;;12.70;99.90;;;;;;5096247;28;20376;-89
2023/05/14 02:30:35;;;;;;;0.10;0.10;;;12.80;99.90;;;;;;5095343;28;20039;-90
2023/05/14 02:33:00;;;;;;;0.10;0.10;;;12.80;99.90;;;;;;5096214;28;20023;-91
2023/05/14 02:35:26;;;;;;;0.15;0.15;;;12.60;99.90;;;;;;5095259;28;20078;-90
2023/05/14 02:37:53;;;;;;;0.10;0.10;;;12.60;99.90;;;;;;5095991;28;20020;-90
2023/05/14 02:40:18;;;;;;;0.10;0.10;;;12.70;99.90;;;;;;5095919;28;20559;-91
2023/05/14 02:42:44;;;;;;;0.05;0.05;;;12.80;99.90;;;;;;5095129;28;20052;-90
2023/05/14 02:45:10;;;;;;;0.00;0.00;;;13.00;99.90;;;;;;5094717;28;20085;-90
2023/05/14 02:47:35;;;;;;;0.30;0.28;;;13.00;99.90;;;;;;5094733;28;20028;-91
2023/05/14 02:50:01;;;;;;;0.43;0.30;;;12.80;99.90;;;;;;5094688;28;20028;-90
2023/05/14 02:52:26;;;;;;;0.30;0.10;;;12.80;99.90;;;;;;5094526;28;20024;-90
2023/05/14 02:54:52;;;;;;;0.20;0.20;;;12.90;99.90;;;;;;5095841;28;20024;-91
2023/05/14 02:57:18;;;;;;;0.10;0.10;;;12.90;99.90;;;;;;5095575;28;20035;-91
2023/05/14 02:59:43;;;;;;;0.00;0.00;;;12.90;99.90;;;;;;5094405;28;20035;-91
2023/05/14 03:02:09;;;;;;;0.00;0.00;;;13.00;99.90;;;;;;5095795;28;20051;-91
2023/05/14 03:04:34;;;;;;;0.10;0.10;;;13.10;99.90;;;;;;5094463;28;20032;-90
2023/05/14 03:07:00;;;;;;;0.25;0.25;;;13.00;99.90;;;;;;5094305;28;20028;-90
2023/05/14 03:09:26;;;;;;;0.10;0.10;;;12.80;99.90;;;;;;5094247;28;20388;-90
2023/05/14 03:11:51;;;;;;;0.25;0.20;;;12.80;99.90;;;;;;5094363;28;20035;-91
2023/05/14 03:14:17;;;;;;;0.17;0.17;;;13.00;99.90;;;;;;5094716;28;20035;-90
2023/05/14 03:16:43;;;;;;;0.45;0.45;;;13.00;99.90;;;;;;5094354;28;20031;-90
2023/05/14 03:19:08;;;;;;;0.10;0.10;;;13.10;99.90;;;;;;5095205;28;20098;-90
2023/05/14 03:21:34;;;;;;;0.20;0.20;;;13.10;99.90;;;;;;5093814;28;20023;-90
2023/05/14 03:24:00;;;;;;;0.20;0.20;;;13.10;99.90;;;;;;5093890;28;20040;-91
2023/05/14 03:26:25;;;;;;;0.20;0.20;;;12.90;99.90;;;;;;5094348;28;20503;-91
2023/05/14 03:28:51;;;;;;;0.30;0.30;;;12.80;99.90;;;;;;5095049;28;20101;-90
2023/05/14 03:31:17;;;;;;;0.20;0.20;;;12.80;99.90;;;;;;5094168;28;20024;-91
2023/05/14 03:33:42;;;;;;;0.00;0.00;;;13.00;99.90;;;;;;5093400;28;20506;-90
2023/05/14 03:36:08;;;;;;;0.30;0.30;;;13.10;99.90;;;;;;5094605;28;20049;-90
2023/05/14 03:38:34;;;;;;;0.47;0.47;;;13.20;99.90;;;;;;5094986;28;20028;-90
2023/05/14 03:40:59;;;;;;;0.70;0.55;;;13.00;99.90;;;;;;5093973;28;20024;-91
2023/05/14 03:43:25;;;;;;;0.32;0.32;;;12.90;99.90;;;;;;5093501;28;20036;-90
2023/05/14 03:45:51;;;;;;;0.10;0.10;;;12.90;99.90;;;;;;5094902;28;20024;-90
2023/05/14 03:48:20;;;;;;;0.22;0.22;;;13.00;99.90;;;;;;5094357;28;20089;-91
2023/05/14 03:50:46;;;;;;;0.17;0.17;;;13.00;99.90;;;;;;5094375;28;20034;-90
2023/05/14 03:53:11;;;;;;;0.20;0.20;;;12.80;99.90;;;;;;5094950;28;20477;-90
2023/05/14 03:55:37;;;;;;;0.13;0.13;;;12.80;99.90;;;;;;5093272;28;20032;-91
2023/05/14 03:58:06;;;;;;;0.35;0.35;;;12.80;99.90;;;;;;5093733;28;20031;-90
2023/05/14 04:00:32;;;;;;;0.32;0.32;;;12.80;99.90;;;;;;5094658;28;20031;-90
2023/05/14 04:02:57;;;;;;;0.00;0.00;;;12.90;99.90;;;;;;5093497;28;20024;-90
2023/05/14 04:05:23;;;;;;;0.03;0.03;;;12.90;99.90;;;;;;5093779;28;20545;-90
2023/05/14 04:07:49;;;;;;;0.20;0.20;;;12.90;99.90;;;;;;5094610;28;20052;-90
2023/05/14 04:10:14;;;;;;;0.00;0.00;;;13.00;99.90;;;;;;5093111;28;20476;-90
2023/05/14 04:12:40;;;;;;;0.30;0.30;;;13.00;99.90;;;;;;5094031;28;20039;-90
2023/05/14 04:15:06;;;;;;;0.20;0.20;;;12.80;99.90;;;;;;5093085;28;20115;-91
2023/05/14 04:17:32;;;;;;;1.65;0.30;;;12.80;99.90;;;;;;5094329;28;20031;-90
2023/05/14 04:19:58;;;;;;;0.13;0.13;;;12.80;99.90;;;;;;5092527;28;20040;-90
2023/05/14 04:22:23;;;;;;;0.30;0.30;;;12.90;99.90;;;;;;5094324;28;20028;-90
2023/05/14 04:24:49;;;;;;;0.10;0.10;;;13.00;99.90;;;;;;5092911;28;20030;-90
2023/05/14 04:27:21;;;;;;;0.15;0.15;;;13.00;99.90;;;;;;5094334;28;20028;-90
2023/05/14 04:29:48;;;;;;;0.22;0.22;;;13.10;99.90;;;;;;5093762;28;20031;-89
2023/05/14 04:32:13;;;;;;;0.08;0.08;;;13.20;99.90;;;;;;5092918;28;20030;-90
2023/05/14 04:34:40;;;;;;;0.10;0.10;;;13.20;99.90;;;;;;5092326;28;20057;-90
2023/05/14 04:37:05;;;;;;;0.17;0.17;;;13.20;99.90;;;;;;5094480;28;20108;-90
2023/05/14 04:39:31;;;;;;;0.00;0.00;;;13.10;99.90;;;;;;5092788;28;20051;-89
2023/05/14 04:41:57;;;;;;;0.03;0.03;;;13.30;99.90;;;;;;5093642;28;20031;-90
2023/05/14 04:44:22;;;;;;;0.25;0.25;;;13.20;99.90;;;;;;5092400;28;20081;-90
2023/05/14 04:46:48;;;;;;;0.35;0.28;;;13.20;99.90;;;;;;5092295;28;20073;-90
2023/05/14 04:49:13;;;;;;;0.10;0.10;;;13.20;99.90;;;;;;5093613;28;20503;-90
2023/05/14 04:51:39;;;;;;;0.10;0.10;;;13.30;99.90;;;;;;5093543;28;20418;-90
2023/05/14 04:54:05;;;;;;;0.35;0.35;;;13.40;99.90;;;;;;5092658;28;20427;-90
2023/05/14 04:56:30;;;;;;;0.10;0.10;;;13.40;99.90;;;;;;5093659;28;20024;-90
2023/05/14 04:58:56;;;;;;;0.00;0.00;;;13.50;99.90;;;;;;5092709;28;20499;-90
2023/05/14 05:01:22;;;;;;;0.30;0.30;;;13.60;99.90;;;;;;5092235;28;20024;-90
2023/05/14 05:03:47;;;;;;;0.08;0.08;;;13.50;99.90;;;;;;5093163;28;20116;-89
2023/05/14 05:06:13;;;;;;;0.32;0.32;;;13.40;99.90;;;;;;5092733;28;20020;-90
2023/05/14 05:08:39;;;;;;;0.10;0.10;;;13.40;99.90;;;;;;5092427;28;20036;-90
2023/05/14 05:11:05;;;;;;;0.00;0.00;;;13.10;99.90;;;;;;5093520;28;20100;-90
2023/05/14 05:13:31;;;;;;;0.00;0.00;;;13.20;99.90;;;;;;5092289;28;20060;-90
2023/05/14 05:15:56;;;;;;;0.28;0.10;;;13.00;99.90;;;;;;5092719;28;20024;-84
2023/05/14 05:18:22;;;;;;;0.10;0.10;;;13.30;99.90;;;;;;5091661;28;20479;-84
2023/05/14 05:20:48;;;;;;;0.00;0.00;;;13.40;99.90;;;;;;5091754;28;20044;-84
2023/05/14 05:23:13;;;;;;;0.22;0.22;;;13.50;99.90;;;;;;5092085;28;20035;-84
2023/05/14 05:25:39;;;;;;;0.15;0.10;;;13.40;99.90;;;;;;5092182;28;20028;-84
2023/05/14 05:28:05;;;;;;;0.00;0.00;;;13.50;99.90;;;;;;5092319;28;20156;-84
2023/05/14 05:30:31;;;;;;;0.10;0.10;;;13.40;99.90;;;;;;5091994;28;20061;-84
2023/05/14 05:32:57;;;;;;;0.03;0.03;;;13.50;99.90;;;;;;5091598;28;20430;-84
2023/05/14 05:35:22;;;;;;;0.00;0.00;;;13.40;99.90;;;;;;5092060;28;20069;-84
2023/05/14 05:37:48;;;;;;;0.05;0.05;;;13.50;99.90;;;;;;5092012;28;20522;-84
2023/05/14 05:40:14;;;;;;;0.10;0.10;;;13.60;99.90;;;;;;5092421;28;20111;-84
2023/05/14 05:42:40;;;;;;;0.10;0.10;;;13.60;99.90;;;;;;5092020;28;20028;-84
2023/05/14 05:45:07;;;;;;;0.10;0.10;;;13.50;99.90;;;;;;5090583;28;20028;-84
2023/05/14 05:47:32;;;;;;;0.00;0.00;;;13.50;99.90;;;;;;5091272;28;20020;-84
2023/05/14 05:49:58;;;;;;;0.20;0.20;;;13.60;99.90;;;;;;5091845;28;20499;-84
2023/05/14 05:52:24;;;;;;;0.10;0.10;;;13.60;99.90;;;;;;5091768;28;20031;-84
2023/05/14 05:54:50;;;;;;;0.00;0.00;;;13.50;99.90;;;;;;5092249;28;20551;-85
2023/05/14 05:57:15;;;;;;;2.75;0.55;;;13.60;99.90;;;;;;5095274;28;20025;-84
2023/05/14 05:59:41;;;;;;;0.10;0.10;;;13.60;99.90;;;;;;5095628;28;20020;-84
2023/05/14 06:02:06;;;;;;;0.00;0.00;;;13.60;99.90;;;;;;5095209;28;20016;-84
2023/05/14 06:04:32;;;;;;;0.10;0.10;;;13.60;99.90;;;;;;5095440;28;20097;-84
2023/05/14 06:06:58;;;;;;;0.00;0.00;;;13.60;99.90;;;;;;5095629;28;20016;-84
2023/05/14 06:09:23;;;;;;;0.03;0.03;;;13.50;99.90;;;;;;5095069;28;20064;-84
2023/05/14 06:11:49;;;;;;;0.10;0.10;;;13.50;99.90;;;;;;5095311;28;20091;-84
2023/05/14 06:14:15;;;;;;;0.00;0.00;;;13.60;99.90;;;;;;5095246;28;20059;-85
2023/05/14 06:16:40;;;;;;;0.00;0.00;;;13.40;99.90;;;;;;5093683;28;20028;-84
2023/05/14 06:19:07;;;;;;;0.00;0.00;;;13.50;99.90;;;;;;5093991;28;20055;-84
2023/05/14 06:21:32;;;;;;;0.10;0.10;;;13.40;99.90;;;;;;5095130;28;20077;-84
2023/05/14 06:23:58;;;;;;;0.40;0.40;;;13.50;99.90;;;;;;5095281;28;20028;-84
2023/05/14 06:26:24;;;;;;;0.22;0.20;;;13.50;99.90;;;;;;5094903;28;20565;-84
2023/05/14 06:28:50;;;;;;;0.47;0.30;;;13.60;99.90;;;;;;5093696;28;20051;-84
2023/05/14 06:31:17;;;;;;;0.57;0.50;;;13.60;99.90;;;;;;5094800;28;20468;-84
2023/05/14 06:33:44;;;;;;;0.00;0.00;;;13.60;99.90;;;;;;5094868;28;20024;-84
2023/05/14 06:36:09;;;;;;;0.10;0.10;;;13.70;99.90;;;;;;5094842;28;20031;-84
2023/05/14 06:38:35;;;;;;;0.00;0.00;;;13.60;99.90;;;;;;5094918;28;20032;-84
2023/05/14 06:41:01;;;;;;;0.00;0.00;;;13.60;99.90;;;;;;5093436;28;20467;-85
2023/05/14 06:43:27;;;;;;;0.10;0.10;;;13.60;99.90;;;;;;5094562;28;20028;-84
2023/05/14 06:45:53;;;;;;;1.45;0.32;;;13.50;99.90;;;;;;5094206;28;20549;-84
2023/05/14 06:48:19;;;;;;;1.35;0.63;;;13.60;99.90;;;;;;5094812;28;20392;-84
2023/05/14 06:50:46;;;;;;;0.20;0.20;;;13.60;99.90;;;;;;5094649;28;20036;-84
2023/05/14 06:53:11;;;;;;;0.20;0.15;;;13.60;99.90;;;;;;5093187;28;20056;-84
2023/05/14 06:55:37;;;;;;;0.10;0.10;;;13.60;99.90;;;;;;5094901;28;20055;-84
2023/05/14 06:58:05;;;;;;;0.03;0.03;;;13.60;99.90;;;;;;5094389;28;20028;-84
2023/05/14 07:00:30;;;;;;;0.17;0.13;;;13.50;99.90;;;;;;5093929;28;20433;-84
2023/05/14 07:02:56;;;;;;;0.20;0.20;;;13.50;99.90;;;;;;5094919;28;20032;-84
2023/05/14 07:05:22;;;;;;;0.10;0.10;;;13.60;99.90;;;;;;5094366;28;20560;-84
2023/05/14 07:07:48;;;;;;;0.50;0.50;;;13.60;99.90;;;;;;5093170;28;20484;-84
2023/05/14 07:10:13;;;;;;;0.20;0.20;;;13.60;99.90;;;;;;5094060;28;20059;-84
2023/05/14 07:12:39;;;;;;;0.73;0.65;;;13.50;99.90;;;;;;5093001;28;20027;-84
2023/05/14 07:15:05;;;;;;;0.17;0.17;;;13.50;99.90;;;;;;5093740;28;20103;-84
2023/05/14 07:17:31;;;;;;;0.17;0.17;;;13.50;99.90;;;;;;5094174;28;20020;-84
2023/05/14 07:19:57;;;;;;;0.30;0.28;;;13.60;99.90;;;;;;5093750;28;20535;-84
2023/05/14 07:22:22;;;;;;;0.98;0.28;;;13.60;99.90;;;;;;5094221;28;20455;-84
2023/05/14 07:24:49;;;;;;;0.10;0.10;;;13.70;99.90;;;;;;5093975;28;20400;-84
2023/05/14 07:27:15;;;;;;;0.10;0.10;;;13.70;99.90;;;;;;5093866;28;20064;-84
2023/05/14 07:29:43;;;;;;;0.35;0.35;;;13.70;99.90;;;;;;5093345;28;20052;-84
2023/05/14 07:32:08;;;;;;;0.30;0.30;;;13.70;99.90;;;;;;5094238;28;20450;-84
2023/05/14 07:34:34;;;;;;;0.03;0.03;;;13.60;99.90;;;;;;5092267;28;20426;-84
2023/05/14 07:37:00;;;;;;;0.03;0.03;;;13.70;99.90;;;;;;5093762;28;20040;-84
2023/05/14 07:39:26;;;;;;;0.13;0.13;;;13.70;99.90;;;;;;5093567;28;20355;-84
2023/05/14 07:41:53;;;;;;;0.52;0.50;;;13.60;99.90;;;;;;5094015;28;20020;-84
2023/05/14 07:44:19;;;;;;;0.10;0.10;;;13.60;99.90;;;;;;5092918;28;20036;-84
2023/05/14 07:46:45;;;;;;;0.85;0.20;;;13.60;99.90;;;;;;5093387;28;20012;-84
2023/05/14 07:49:11;;;;;;;0.00;0.00;;;13.70;99.90;;;;;;5093402;28;20477;-84
2023/05/14 07:51:37;;;;;;;0.17;0.17;;;13.80;99.90;;;;;;5093474;28;20023;-84
2023/05/14 07:54:03;;;;;;;0.00;0.00;;;13.80;99.90;;;;;;5093409;28;20488;-84
2023/05/14 07:56:28;;;;;;;0.05;0.05;;;13.80;99.90;;;;;;5093115;28;20016;-85
2023/05/14 07:58:54;;;;;;;0.47;0.40;;;13.80;99.90;;;;;;5092855;28;20504;-84
2023/05/14 08:01:20;;;;;;;0.10;0.10;;;13.90;99.90;;;;;;5093554;28;20039;-84
2023/05/14 08:03:46;;;;;;;0.00;0.00;;;13.80;99.90;;;;;;5093225;28;20028;-83
2023/05/14 08:06:12;;;;;;;0.10;0.10;;;13.90;99.90;;;;;;5093141;28;20020;-84
2023/05/14 08:08:37;;;;;;;0.10;0.10;;;13.90;99.90;;;;;;5092950;28;20468;-84
2023/05/14 08:11:03;;;;;;;0.32;0.32;;;13.80;99.90;;;;;;5093305;28;20472;-84
2023/05/14 08:13:28;;;;;;;0.20;0.20;;;13.90;99.90;;;;;;5092795;28;20028;-84
2023/05/14 08:15:55;;;;;;;0.10;0.10;;;13.90;99.90;;;;;;5092948;28;20024;-84
2023/05/14 08:18:20;;;;;;;0.00;0.00;;;13.80;99.90;;;;;;5092680;28;20027;-84
2023/05/14 08:20:47;;;;;;;0.10;0.10;;;13.80;99.90;;;;;;5092700;28;20052;-84
2023/05/14 08:23:13;;;;;;;0.00;0.00;;;13.90;99.90;;;;;;5093235;28;20088;-84
2023/05/14 08:25:38;;;;;;;0.35;0.10;;;13.90;99.90;;;;;;5093095;28;20036;-84
2023/05/14 08:28:04;;;;;;;0.40;0.20;;;13.90;99.90;;;;;;5092385;28;20042;-84
2023/05/14 08:30:30;;;;;;;0.20;0.20;;;13.90;99.90;;;;;;5092601;28;20040;-84
2023/05/14 08:32:57;;;;;;;0.10;0.10;;;13.90;99.90;;;;;;5092771;28;20480;-84
2023/05/14 08:35:22;;;;;;;0.15;0.15;;;13.90;99.90;;;;;;5092576;28;20052;-84
2023/05/14 08:37:49;;;;;;;0.10;0.10;;;13.90;99.90;;;;;;5093014;28;20062;-83
2023/05/14 08:40:14;;;;;;;0.20;0.20;;;13.80;99.90;;;;;;5090783;28;20024;-84
2023/05/14 08:42:40;;;;;;;0.20;0.20;;;13.70;99.90;;;;;;5092319;28;20080;-84
2023/05/14 08:45:12;;;;;;;0.15;0.15;;;13.80;99.90;;;;;;5092425;28;20217;-84
2023/05/14 08:47:38;;;;;;;0.30;0.30;;;13.90;99.90;;;;;;5092753;28;20032;-84
2023/05/14 08:50:06;;;;;;;0.30;0.20;;;14.10;99.90;;;;;;5092330;28;20038;-84
2023/05/14 08:52:32;;;;;;;0.10;0.10;;;14.20;99.90;;;;;;5091089;28;20020;-84
2023/05/14 08:55:01;;;;;;;0.13;0.13;;;14.30;99.90;;;;;;5092020;28;20016;-84
2023/05/14 08:57:29;;;;;;;0.63;0.30;;;14.40;99.90;;;;;;5092346;28;20495;-84
2023/05/14 08:59:54;;;;;;;0.15;0.15;;;14.50;99.90;;;;;;5090690;28;20032;-83
2023/05/14 09:02:23;;;;;;;0.10;0.10;;;14.50;99.90;;;;;;5092724;28;20489;-84
2023/05/14 09:05:00;;;;;;;0.10;0.10;;;14.50;99.90;;;;;;5092367;28;20066;-84
2023/05/14 09:07:26;;;;;;;0.03;0.03;;;14.50;99.90;;;;;;5092419;28;20028;-83
2023/05/14 09:09:53;;;;;;;0.32;0.10;;;14.40;99.90;;;;;;5091622;28;20032;-84
2023/05/14 09:12:19;;;;;;;0.10;0.10;;;14.40;99.90;;;;;;5092220;28;20384;-84
2023/05/14 09:14:46;;;;;;;0.70;0.25;;;14.20;99.90;;;;;;5092244;28;20036;-84
2023/05/14 09:17:12;;;;;;;0.00;0.00;;;14.20;99.90;;;;;;5092130;28;20108;-84
2023/05/14 09:19:39;;;;;;;0.10;0.10;;;14.20;99.90;;;;;;5091960;28;20462;-84
2023/05/14 09:22:08;;;;;;;0.20;0.20;;;14.00;99.90;;;;;;5092128;28;20020;-84
2023/05/14 09:24:34;;;;;;;0.20;0.20;;;14.00;99.90;;;;;;5090663;28;20055;-84
2023/05/14 09:27:01;;;;;;;0.38;0.15;;;14.10;99.90;;;;;;5091876;28;20043;-84
2023/05/14 09:29:30;;;;;;;0.55;0.47;;;14.20;99.90;;;;;;5091878;28;20460;-84
2023/05/14 09:31:57;;;;;;;0.08;0.08;;;14.40;99.90;;;;;;5095391;28;20451;-84
2023/05/14 09:34:28;;;;;;;0.88;0.50;;;14.50;99.90;;;;;;5095986;28;20040;-84
2023/05/14 09:37:14;;;;;;;0.10;0.10;;;14.70;99.90;;;;;;5096277;28;20020;-84
2023/05/14 09:39:39;;;;;;;0.13;0.13;;;14.60;99.90;;;;;;5095233;28;20039;-84
2023/05/14 09:42:05;;;;;;;0.10;0.10;;;14.80;99.90;;;;;;5096017;28;20036;-84
2023/05/14 09:44:31;;;;;;;0.00;0.00;;;14.80;99.90;;;;;;5095738;28;20060;-84
2023/05/14 09:46:57;;;;;;;0.10;0.10;;;14.80;99.90;;;;;;5095764;28;20059;-84
2023/05/14 09:49:22;;;;;;;0.10;0.10;;;14.80;99.90;;;;;;5096040;28;20036;-84
2023/05/14 09:51:49;;;;;;;0.00;0.00;;;14.70;99.90;;;;;;5095698;28;20024;-84
2023/05/14 09:54:14;;;;;;;0.20;0.20;;;14.80;99.90;;;;;;5095256;28;20088;-84
2023/05/14 09:56:41;;;;;;;0.52;0.25;;;14.90;99.90;;;;;;5095619;28;20036;-84
2023/05/14 09:59:07;;;;;;;0.20;0.20;;;14.70;99.90;;;;;;5095793;28;20047;-84
2023/05/14 10:01:32;;;;;;;0.00;0.00;;;14.60;99.90;;;;;;5095635;28;20542;-84
2023/05/14 10:03:59;;;;;;;0.25;0.25;;;14.70;99.90;;;;;;5095530;28;20031;-84
2023/05/14 10:06:30;;;;;;;0.10;0.10;;;14.80;99.90;;;;;;5095806;28;20069;-83
2023/05/14 10:09:01;;;;;;;0.10;0.10;;;14.80;99.90;;;;;;5095029;28;20036;-84
2023/05/14 10:11:31;;;;;;;0.20;0.20;;;15.00;99.90;;;;;;5095367;28;20400;-84
2023/05/14 10:14:02;;;;;;;0.15;0.15;;;15.20;99.90;;;;;;5095423;28;20476;-84
2023/05/14 10:16:32;;;;;;;0.20;0.20;;;15.30;99.90;;;;;;5095210;28;20024;-84
2023/05/14 10:19:04;;;;;;;0.00;0.00;;;15.30;99.90;;;;;;5095392;28;20404;-84
2023/05/14 10:21:33;;;;;;;0.73;0.20;;;15.30;99.90;;;;;;5095229;28;20024;-84
2023/05/14 10:23:59;;;;;;;0.20;0.20;;;15.30;99.90;;;;;;5094719;28;20020;-84
2023/05/14 10:26:25;;;;;;;0.40;0.40;;;15.60;99.90;;;;;;5095519;28;20480;-83
2023/05/14 10:28:51;;;;;;;0.20;0.20;;;15.80;99.90;;;;;;5094852;28;20039;-84
2023/05/14 10:31:17;;;;;;;0.00;0.00;;;16.40;99.90;;;;;;5094990;28;20544;-84
2023/05/14 10:33:50;;;;;;;0.10;0.10;;;16.70;99.90;;;;;;5095389;28;20062;-84
2023/05/14 10:36:17;;;;;;;0.50;0.20;;;17.10;99.90;;;;;;5094588;28;20024;-84
2023/05/14 10:38:43;;;;;;;0.10;0.10;;;16.80;99.90;;;;;;5094829;28;20016;-84
2023/05/14 10:41:20;;;;;;;0.38;0.38;;;16.90;99.90;;;;;;5093232;28;20582;-83
2023/05/14 10:43:46;;;;;;;1.25;0.30;;;17.40;99.90;;;;;;5094516;28;20036;-84
2023/05/14 10:46:13;;;;;;;0.35;0.30;;;17.50;99.90;;;;;;5094644;28;20081;-84
2023/05/14 10:48:41;;;;;;;0.70;0.55;;;17.20;99.90;;;;;;5094388;28;20032;-84
2023/05/14 10:51:10;;;;;;;0.10;0.10;;;17.50;99.90;;;;;;5094234;28;20499;-84
2023/05/14 10:53:38;;;;;;;0.25;0.25;;;17.30;99.90;;;;;;5094649;28;20028;-84
2023/05/14 10:56:06;;;;;;;0.22;0.22;;;17.20;99.90;;;;;;5094476;28;20024;-84
2023/05/14 10:58:35;;;;;;;0.30;0.30;;;17.00;99.90;;;;;;5094881;28;20039;-84
2023/05/14 11:01:02;;;;;;;0.10;0.10;;;16.80;99.90;;;;;;5094838;28;20031;-83
2023/05/14 11:03:31;;;;;;;0.13;0.13;;;16.50;99.90;;;;;;5094631;28;20024;-83
2023/05/14 11:06:02;;;;;;;0.10;0.10;;;16.40;99.90;;;;;;5094091;28;20503;-83
2023/05/14 11:08:28;;;;;;;0.35;0.35;;;16.50;99.90;;;;;;5094274;28;20070;-84
2023/05/14 11:10:54;;;;;;;0.90;0.52;;;16.60;99.90;;;;;;5094742;28;20051;-84
2023/05/14 11:13:20;;;;;;;0.20;0.20;;;16.70;99.90;;;;;;5092866;28;20649;-84
2023/05/14 11:15:47;;;;;;;0.00;0.00;;;16.60;99.90;;;;;;5094433;28;20073;-84
2023/05/14 11:18:13;;;;;;;0.40;0.40;;;16.60;99.90;;;;;;5094200;28;20481;-84
2023/05/14 11:20:39;;;;;;;0.35;0.30;;;16.40;99.90;;;;;;5093337;28;20127;-84
2023/05/14 11:23:05;;;;;;;0.10;0.10;;;16.50;99.90;;;;;;5093923;28;20027;-84
2023/05/14 11:25:30;;;;;;;0.22;0.22;;;16.60;99.90;;;;;;5093925;28;20095;-84
2023/05/14 11:27:59;;;;;;;0.43;0.43;;;16.80;99.90;;;;;;5094156;28;20028;-84
2023/05/14 11:30:25;;;;;;;0.15;0.15;;;17.00;99.90;;;;;;5093714;28;20115;-84
2023/05/14 11:32:51;;;;;;;0.10;0.10;;;17.10;99.90;;;;;;5093824;28;20488;-84
2023/05/14 11:35:17;;;;;;;0.52;0.52;;;17.40;99.90;;;;;;5093550;28;20032;-84
2023/05/14 11:37:48;;;;;;;0.05;0.05;;;17.50;99.90;;;;;;5093731;28;20545;-84
2023/05/14 11:40:17;;;;;;;0.00;0.00;;;17.60;99.90;;;;;;5093699;28;20047;-84
2023/05/14 11:42:43;;;;;;;0.13;0.13;;;17.50;99.90;;;;;;5093367;28;20787;-84
2023/05/14 11:45:13;;;;;;;0.10;0.10;;;17.50;99.90;;;;;;5093451;28;20024;-84
2023/05/14 11:47:40;;;;;;;0.20;0.20;;;17.50;99.90;;;;;;5092409;28;20031;-84
2023/05/14 11:50:06;;;;;;;0.00;0.00;;;17.40;99.90;;;;;;5093072;28;20040;-84
2023/05/14 11:52:40;;;;;;;0.00;0.00;;;17.60;99.90;;;;;;5093282;28;20020;-84
2023/05/14 11:55:12;;;;;;;0.10;0.10;;;18.40;99.90;;;;;;5093038;28;20365;-84
2023/05/14 11:57:39;;;;;;;0.00;0.00;;;18.70;99.90;;;;;;5093364;28;20111;-84
2023/05/14 12:00:08;;;;;;;0.10;0.10;;;18.70;99.90;;;;;;5093214;28;20477;-84
2023/05/14 12:02:33;;;;;;;0.00;0.00;;;18.90;99.90;;;;;;5093139;28;20035;-84
2023/05/14 12:05:00;;;;;;;0.40;0.32;;;18.80;99.90;;;;;;5093558;28;20024;-84
2023/05/14 12:07:28;;;;;;;0.57;0.40;;;18.80;99.90;;;;;;5093585;28;20020;-84
2023/05/14 12:09:53;;;;;;;0.20;0.20;;;18.90;99.90;;;;;;5093080;28;20043;-84
2023/05/14 12:12:21;;;;;;;0.10;0.10;;;19.10;99.90;;;;;;5092999;28;20016;-84
2023/05/14 12:14:48;;;;;;;0.00;0.00;;;18.90;99.90;;;;;;5093331;28;20400;-83
2023/05/14 12:17:16;;;;;;;0.20;0.20;;;18.80;99.90;;;;;;5092902;28;20545;-84
2023/05/14 12:19:43;;;;;;;0.13;0.13;;;18.60;99.90;;;;;;5092282;28;20047;-84
2023/05/14 12:22:14;;;;;;;0.20;0.13;;;18.80;99.90;;;;;;5092861;28;20051;-84
2023/05/14 12:24:40;;;;;;;0.00;0.00;;;18.90;99.90;;;;;;5092768;28;20023;-84
2023/05/14 12:27:08;;;;;;;0.20;0.20;;;18.70;99.90;;;;;;5093160;28;20032;-83
2023/05/14 12:29:37;;;;;;;0.10;0.10;;;18.80;99.90;;;;;;5092444;28;20333;-84
2023/05/14 12:32:08;;;;;;;0.20;0.20;;;18.80;99.90;;;;;;5092828;28;20027;-84
2023/05/14 12:34:35;;;;;;;0.05;0.05;;;18.40;99.90;;;;;;5092742;28;20106;-84
2023/05/14 12:37:00;;;;;;;0.35;0.35;;;18.30;99.90;;;;;;5092594;28;20056;-84
2023/05/14 12:39:26;;;;;;;0.30;0.30;;;18.00;99.90;;;;;;5092724;28;20404;-84
2023/05/14 12:41:52;;;;;;;0.30;0.30;;;18.00;99.90;;;;;;5092858;28;20067;-84
2023/05/14 12:44:17;;;;;;;0.08;0.08;;;18.10;99.90;;;;;;5092471;28;20035;-84